Time;durP1;ratioP1;P1;durP2;ratioP2;P2;SDS_P1;SDS_P2;PMS_P1;PMS_P2;Temp;Humidity;BMP_temperature;BMP_pressure;BME280_temperature;BME280_humidity;BME280_pressure;Samples;Min_cycle;Max_cycle;Signal;HPM_P1;HPM_P2
2022/04/16 00:00:17;;;;;;;7.45;3.95;;;9.50;99.90;;;9.48;77.48;102286.91;5224466;28;20056;-70
2022/04/16 00:02:49;;;;;;;8.98;4.60;;;9.50;99.90;;;9.43;77.36;102285.72;5224138;28;20127;-72
2022/04/16 00:05:22;;;;;;;8.10;3.97;;;9.40;99.90;;;9.37;77.30;102283.63;5231628;28;20051;-70
2022/04/16 00:08:09;;;;;;;9.50;4.63;;;9.40;99.90;;;9.33;77.72;102284.25;5235974;28;20494;-70
2022/04/16 00:10:41;;;;;;;8.43;4.15;;;9.40;99.90;;;9.30;78.26;102284.03;5227588;28;20055;-73
2022/04/16 00:13:16;;;;;;;8.32;4.95;;;9.30;99.90;;;9.28;77.94;102290.88;5228735;28;20045;-71
2022/04/16 00:15:50;;;;;;;;;;;9.30;99.90;;;9.24;78.30;102289.75;5229034;28;20041;-71
2022/04/16 00:18:22;;;;;;;7.47;3.90;;;9.20;99.90;;;9.20;78.29;102286.88;5216700;28;20285;-71
2022/04/16 00:20:55;;;;;;;8.30;3.97;;;9.20;99.90;;;9.17;78.26;102291.88;5230659;28;20497;-72
2022/04/16 00:23:26;;;;;;;8.73;4.30;;;9.20;99.90;;;9.12;78.38;102288.06;5240311;28;20045;-70
2022/04/16 00:25:58;;;;;;;8.90;4.57;;;9.10;99.90;;;9.07;78.52;102281.69;5228441;28;20048;-71
2022/04/16 00:28:33;;;;;;;6.10;4.03;;;9.10;99.90;;;9.05;78.50;102291.06;5228273;28;20391;-71
2022/04/16 00:31:05;;;;;;;9.32;4.40;;;9.10;99.90;;;9.01;78.77;102286.50;5228601;28;20076;-71
2022/04/16 00:33:37;;;;;;;7.75;4.43;;;9.00;99.90;;;8.98;78.60;102285.47;5227837;28;20045;-73
2022/04/16 00:36:09;;;;;;;9.88;4.68;;;9.00;99.90;;;8.97;78.64;102286.28;5228214;28;20049;-70
2022/04/16 00:38:41;;;;;;;7.45;4.82;;;9.00;99.90;;;8.92;78.66;102277.28;5227793;28;20053;-70
2022/04/16 00:41:14;;;;;;;8.48;4.35;;;8.90;99.90;;;8.88;79.03;102280.50;5228044;28;20411;-72
2022/04/16 00:43:47;;;;;;;6.07;4.07;;;8.90;99.90;;;8.84;79.26;102283.69;5227597;28;20511;-71
2022/04/16 00:46:19;;;;;;;7.80;4.05;;;8.90;99.90;;;8.81;79.28;102285.19;5227504;28;20045;-70
2022/04/16 00:48:51;;;;;;;9.07;4.57;;;8.80;99.90;;;8.79;79.36;102287.69;5227885;28;20494;-71
2022/04/16 00:51:24;;;;;;;11.20;4.82;;;8.80;99.90;;;8.79;79.56;102290.28;5227744;28;20140;-70
2022/04/16 00:53:56;;;;;;;8.85;4.38;;;8.80;99.90;;;8.79;79.43;102286.78;5227530;28;20049;-71
2022/04/16 00:56:28;;;;;;;7.60;3.72;;;8.80;99.90;;;8.76;79.09;102287.50;5227771;28;20045;-71
2022/04/16 00:59:04;;;;;;;6.85;3.88;;;8.80;99.90;;;8.72;79.41;102287.19;5227622;28;20496;-70
2022/04/16 01:01:36;;;;;;;8.98;4.13;;;8.70;99.90;;;8.68;78.94;102280.91;5218699;28;20056;-70
2022/04/16 01:04:09;;;;;;;8.93;4.57;;;8.70;99.90;;;8.64;79.09;102278.88;5227430;28;20052;-73
2022/04/16 01:06:48;;;;;;;9.23;3.80;;;8.70;99.90;;;8.58;78.98;102291.47;5227738;28;20072;-71
2022/04/16 01:09:20;;;;;;;8.82;3.67;;;8.60;99.90;;;8.52;79.47;102285.84;5227316;28;20386;-70
2022/04/16 01:11:52;;;;;;;9.63;4.60;;;8.60;99.90;;;8.48;79.97;102291.66;5227069;28;20044;-71
2022/04/16 01:14:25;;;;;;;8.48;4.72;;;8.50;99.90;;;8.46;79.75;102285.44;5227546;28;20508;-71
2022/04/16 01:16:57;;;;;;;9.80;4.85;;;8.50;99.90;;;8.44;80.33;102295.75;5225993;28;20060;-71
2022/04/16 01:19:29;;;;;;;8.10;4.07;;;8.50;99.90;;;8.43;80.30;102292.25;5228753;28;20378;-71
2022/04/16 01:22:01;;;;;;;8.27;4.05;;;8.40;99.90;;;8.41;79.92;102292.94;5239195;28;20049;-71
2022/04/16 01:24:37;;;;;;;8.00;4.25;;;8.50;99.90;;;8.37;80.10;102297.03;5245104;28;20075;-70
2022/04/16 01:27:09;;;;;;;7.72;4.25;;;8.40;99.90;;;8.35;80.27;102293.44;5248024;28;20049;-70
2022/04/16 01:29:41;;;;;;;5.85;3.58;;;8.40;99.90;;;8.32;80.23;102293.19;5247968;28;20504;-69
2022/04/16 01:32:13;;;;;;;6.13;3.58;;;8.40;99.90;;;8.29;80.52;102298.19;5247702;28;20094;-72
2022/04/16 01:34:45;;;;;;;7.40;4.30;;;8.40;99.90;;;8.26;80.43;102297.97;5247889;28;20059;-71
2022/04/16 01:37:17;;;;;;;6.85;4.20;;;8.30;99.90;;;8.24;80.65;102291.78;5247847;28;20094;-71
2022/04/16 01:39:51;;;;;;;9.93;4.55;;;8.30;99.90;;;8.23;80.44;102297.78;5247735;28;20095;-71
2022/04/16 01:42:24;;;;;;;8.45;4.32;;;8.30;99.90;;;8.20;81.05;102289.75;5247570;28;20044;-71
2022/04/16 01:44:58;;;;;;;7.40;4.18;;;8.30;99.90;;;8.19;80.91;102298.34;5247748;28;20067;-70
2022/04/16 01:47:30;;;;;;;8.50;4.78;;;8.20;99.90;;;8.18;81.31;102296.56;5247577;28;20505;-70
2022/04/16 01:50:02;;;;;;;7.72;4.20;;;8.20;99.90;;;8.15;80.80;102301.56;5247385;28;20049;-71
2022/04/16 01:52:36;;;;;;;7.85;4.45;;;8.20;99.90;;;8.13;81.51;102300.53;5247182;28;20044;-72
2022/04/16 01:55:10;;;;;;;8.43;4.45;;;8.20;99.90;;;8.13;81.12;102306.63;5247101;28;20054;-70
2022/04/16 01:57:43;;;;;;;8.18;4.38;;;8.20;99.90;;;8.12;81.47;102309.13;5247098;28;20059;-73
2022/04/16 02:00:15;;;;;;;9.50;5.13;;;8.10;99.90;;;8.11;81.68;102303.03;5247088;28;20044;-70
2022/04/16 02:02:47;;;;;;;12.02;5.03;;;8.20;99.90;;;8.11;81.82;102307.31;5246846;28;20044;-70
2022/04/16 02:05:19;;;;;;;9.98;4.88;;;8.10;99.90;;;8.11;82.00;102305.63;5247470;28;20481;-70
2022/04/16 02:07:51;;;;;;;9.10;4.65;;;8.10;99.90;;;8.10;82.17;102301.22;5246848;28;20048;-71
2022/04/16 02:10:24;;;;;;;9.63;5.00;;;8.10;99.90;;;8.11;82.17;102302.13;5247163;28;20049;-70
2022/04/16 02:12:56;;;;;;;9.45;4.65;;;8.10;99.90;;;8.12;82.60;102306.53;5237354;28;20045;-71
2022/04/16 02:15:29;;;;;;;10.07;4.97;;;8.10;99.90;;;8.10;82.11;102305.53;5226215;28;20076;-70
2022/04/16 02:18:01;;;;;;;11.00;5.32;;;8.10;99.90;;;8.08;81.93;102313.19;5226054;28;20045;-71
2022/04/16 02:20:35;;;;;;;9.52;5.13;;;8.10;99.90;;;8.07;82.82;102318.28;5226417;28;20049;-72
2022/04/16 02:23:08;;;;;;;11.25;5.15;;;8.10;99.90;;;8.07;82.94;102316.59;5226101;28;20045;-70
2022/04/16 02:25:43;;;;;;;10.95;5.43;;;8.10;99.90;;;8.07;82.80;102326.06;5226178;28;20477;-70
2022/04/16 02:28:15;;;;;;;10.27;5.22;;;8.10;99.90;;;8.06;82.54;102319.09;5225821;28;20060;-71
2022/04/16 02:30:47;;;;;;;11.30;5.57;;;8.10;99.90;;;8.04;82.99;102326.78;5226065;28;20049;-72
2022/04/16 02:33:19;;;;;;;9.95;5.38;;;8.10;99.90;;;8.03;82.72;102334.47;5225856;28;20401;-71
2022/04/16 02:35:51;;;;;;;10.40;5.20;;;8.00;99.90;;;8.04;82.80;102331.06;5226193;28;20051;-71
2022/04/16 02:38:23;;;;;;;11.90;5.60;;;8.10;99.90;;;8.04;83.30;102336.28;5225880;28;20056;-70
2022/04/16 02:40:56;;;;;;;11.85;5.22;;;8.00;99.90;;;8.03;83.06;102337.97;5225945;28;20052;-71
2022/04/16 02:43:28;;;;;;;10.95;5.28;;;8.00;99.90;;;8.03;83.36;102337.06;5225733;28;20478;-70
2022/04/16 02:48:50;;;;;;;12.98;6.22;;;8.10;99.90;;;8.01;83.70;102341.22;5225945;28;20076;-71
2022/04/16 02:51:22;;;;;;;13.55;5.70;;;8.00;99.90;;;7.98;83.51;102341.03;5225401;28;20049;-71
2022/04/16 02:53:54;;;;;;;11.63;5.60;;;8.00;99.90;;;7.98;83.29;102341.94;5225492;28;20048;-71
2022/04/16 02:56:27;;;;;;;11.00;5.40;;;8.00;99.90;;;7.97;83.73;102345.34;5225729;28;20055;-72
2022/04/16 02:58:59;;;;;;;12.32;5.75;;;8.00;99.90;;;7.97;83.89;102341.84;5225521;28;20055;-71
2022/04/16 03:01:31;;;;;;;13.73;5.78;;;8.00;99.90;;;7.96;84.00;102348.72;5225621;28;20045;-71
2022/04/16 03:04:03;;;;;;;12.80;5.70;;;8.00;99.90;;;7.95;83.46;102346.00;5225507;28;20394;-71
2022/04/16 03:06:35;;;;;;;10.52;5.22;;;8.00;99.90;;;7.93;83.62;102342.41;5225329;28;20051;-73
2022/04/16 03:09:08;;;;;;;11.77;5.72;;;7.90;99.90;;;7.89;83.41;102347.41;5225720;28;20049;-71
2022/04/16 03:11:41;;;;;;;10.30;5.20;;;7.90;99.90;;;7.87;83.24;102351.56;5225104;28;20057;-70
2022/04/16 03:19:52;;;;;;;9.73;5.07;;;7.90;99.90;;;7.75;83.65;102342.91;5225378;28;20049;-71
2022/04/16 03:22:24;;;;;;;10.73;5.30;;;7.80;99.90;;;7.73;83.52;102344.50;5225144;28;20049;-70
2022/04/16 03:24:56;;;;;;;9.65;5.32;;;7.80;99.90;;;7.69;83.44;102349.34;5225201;28;20141;-71
2022/04/16 03:27:29;;;;;;;11.52;5.38;;;7.70;99.90;;;7.65;83.09;102340.47;5225446;28;20135;-70
2022/04/16 03:30:02;;;;;;;10.13;5.10;;;7.70;99.90;;;7.62;82.99;102348.00;5225140;28;20135;-71
2022/04/16 03:32:38;;;;;;;13.05;5.35;;;7.70;99.90;;;7.59;83.34;102358.19;5224654;28;20106;-71
2022/04/16 03:35:10;;;;;;;11.70;5.53;;;7.60;99.90;;;7.56;83.42;102352.75;5225392;28;20052;-70
2022/04/16 03:37:42;;;;;;;9.20;5.10;;;7.60;99.90;;;7.53;83.22;102355.16;5224996;28;20049;-71
2022/04/16 03:40:15;;;;;;;9.48;4.78;;;7.60;99.90;;;7.49;83.52;102363.50;5226482;28;20110;-71
2022/04/16 03:42:50;;;;;;;11.18;5.32;;;7.60;99.90;;;7.47;83.54;102357.31;5228896;28;20059;-72
2022/04/16 03:45:24;;;;;;;10.68;5.47;;;7.50;99.90;;;7.45;83.33;102365.00;5229296;28;20135;-70
2022/04/16 03:47:58;;;;;;;12.40;5.32;;;7.50;99.90;;;7.46;83.55;102358.09;5229174;28;20060;-70
2022/04/16 03:50:31;;;;;;;10.80;5.53;;;7.50;99.90;;;7.46;83.59;102358.09;5229187;28;20051;-71
2022/04/16 03:53:04;;;;;;;11.18;4.95;;;7.50;99.90;;;7.45;83.68;102358.91;5228765;28;20049;-71
2022/04/16 04:01:16;;;;;;;10.82;5.20;;;7.50;99.90;;;7.41;83.98;102367.25;5229085;28;20144;-70
2022/04/16 04:03:48;;;;;;;11.23;6.05;;;7.50;99.90;;;7.36;83.59;102377.28;5228859;28;20432;-70
2022/04/16 04:06:20;;;;;;;10.05;5.13;;;7.40;99.90;;;7.31;83.21;102376.97;5228753;28;20060;-72
2022/04/16 04:08:52;;;;;;;11.55;5.80;;;7.40;99.90;;;7.26;83.25;102378.31;5229047;28;20075;-70
2022/04/16 04:11:24;;;;;;;11.00;5.53;;;7.40;99.90;;;7.22;83.31;102384.06;5228911;28;20049;-71
2022/04/16 04:13:57;;;;;;;12.27;5.65;;;7.30;99.90;;;7.18;83.79;102376.84;5228498;28;20052;-70
2022/04/16 04:16:29;;;;;;;10.88;5.25;;;7.30;99.90;;;7.14;83.09;102380.00;5228912;28;20405;-70
2022/04/16 04:19:02;;;;;;;10.35;5.32;;;7.30;99.90;;;7.09;83.40;102381.34;5251886;23;20064;-83
2022/04/16 04:21:34;;;;;;;11.90;5.38;;;7.20;99.90;;;7.06;83.07;102382.03;5239019;23;20045;-70
2022/04/16 04:24:06;;;;;;;11.93;5.35;;;7.20;99.90;;;7.03;84.04;102381.78;5228655;28;20041;-69
2022/04/16 04:26:38;;;;;;;13.18;5.72;;;7.10;99.90;;;7.03;84.07;102386.06;5228548;28;20049;-69
2022/04/16 04:29:11;;;;;;;11.90;4.95;;;7.10;99.90;;;7.02;83.66;102373.91;5228779;28;20045;-70
2022/04/16 04:31:43;;;;;;;10.65;5.53;;;7.10;99.90;;;7.01;83.67;102377.28;5228659;28;20045;-70
2022/04/16 04:34:15;;;;;;;11.75;5.10;;;7.10;99.90;;;6.99;83.41;102379.78;5228544;28;20071;-70
2022/04/16 04:36:47;;;;;;;12.38;5.93;;;7.10;99.90;;;7.00;83.88;102385.88;5228648;28;20397;-69
2022/04/16 04:39:19;;;;;;;10.85;5.25;;;7.00;99.90;;;6.98;84.33;102392.63;5228557;28;20136;-70
2022/04/16 04:41:51;;;;;;;12.40;5.68;;;7.10;99.90;;;6.97;84.28;102390.81;5228352;28;20126;-69
2022/04/16 04:44:24;;;;;;;11.32;5.30;;;7.10;99.90;;;6.96;84.21;102391.59;5228371;28;20041;-69
2022/04/16 04:46:56;;;;;;;9.75;4.45;;;7.10;99.90;;;6.94;84.24;102395.78;5228255;28;20044;-69
2022/04/16 04:49:29;;;;;;;12.80;6.07;;;7.00;99.90;;;6.92;84.34;102392.19;5228250;28;20049;-70
2022/04/16 04:52:01;;;;;;;12.50;5.60;;;7.00;99.90;;;6.93;84.15;102401.75;5228096;28;20135;-69
2022/04/16 04:54:33;;;;;;;11.05;5.25;;;7.00;99.90;;;6.92;83.98;102407.75;5228221;28;20049;-70
2022/04/16 04:57:05;;;;;;;10.63;4.97;;;7.00;99.90;;;6.90;84.63;102414.47;5227909;28;20144;-70
2022/04/16 04:59:39;;;;;;;11.30;5.55;;;7.00;99.90;;;6.89;84.15;102412.69;5228077;28;20044;-70
2022/04/16 05:02:11;;;;;;;11.80;5.38;;;7.00;99.90;;;6.90;84.28;102411.88;5227942;28;20051;-70
2022/04/16 05:04:43;;;;;;;10.85;5.32;;;7.00;99.90;;;6.92;83.93;102418.09;5227619;28;20098;-69
2022/04/16 05:07:15;;;;;;;11.40;5.22;;;7.00;99.90;;;6.95;83.93;102419.22;5227966;28;20055;-68
2022/04/16 05:09:47;;;;;;;11.40;5.68;;;7.00;99.90;;;7.01;84.22;102427.47;5227914;28;20568;-69
2022/04/16 05:12:20;;;;;;;12.88;5.13;;;7.10;99.90;;;7.07;83.82;102424.44;5227807;28;20049;-69
2022/04/16 05:14:53;;;;;;;11.73;5.72;;;7.10;99.90;;;7.16;83.88;102434.56;5227730;28;20498;-69
2022/04/16 05:17:25;;;;;;;13.23;6.03;;;7.20;99.90;;;7.23;83.88;102436.84;5227896;28;20477;-69
2022/04/16 05:19:58;;;;;;;11.27;5.50;;;7.20;99.90;;;7.25;83.97;102436.19;5227789;28;20071;-69
2022/04/16 05:22:31;;;;;;;12.48;6.05;;;7.30;99.90;;;7.27;83.83;102442.38;5227561;28;20052;-70
2022/04/16 05:25:04;;;;;;;14.07;5.68;;;7.30;99.90;;;7.32;83.77;102448.81;5227741;28;20059;-69
2022/04/16 05:27:36;;;;;;;15.15;6.03;;;7.30;99.90;;;7.45;84.00;102441.94;5227301;28;20053;-69
2022/04/16 05:30:22;;;;;;;11.30;5.50;;;7.40;99.90;;;8.24;84.68;102441.56;5227508;28;20059;-69
2022/04/16 05:32:56;;;;;;;11.73;6.10;;;7.70;99.90;;;9.79;82.55;102444.28;5227638;28;20135;-69
2022/04/16 05:35:28;;;;;;;11.32;5.63;;;8.70;99.90;;;11.13;76.77;102446.47;5227473;28;20048;-71
2022/04/16 05:38:00;;;;;;;10.48;5.05;;;9.60;99.90;;;11.97;71.41;102446.88;5227467;28;20055;-69
2022/04/16 05:40:32;;;;;;;11.93;5.60;;;10.40;99.90;;;12.26;68.29;102452.00;5226881;28;20052;-70
2022/04/16 05:43:05;;;;;;;9.65;5.53;;;10.90;99.90;;;12.22;66.78;102458.78;5227797;28;20060;-69
2022/04/16 05:45:38;;;;;;;13.30;5.90;;;11.20;99.90;;;12.49;66.33;102458.47;5227250;28;20476;-69
2022/04/16 05:48:10;;;;;;;11.07;5.70;;;11.40;99.90;;;13.22;64.52;102454.44;5227227;28;20049;-71
2022/04/16 05:50:42;;;;;;;10.15;5.65;;;11.90;99.90;;;13.99;62.36;102453.84;5227026;28;20569;-70
2022/04/16 05:53:15;;;;;;;11.43;5.72;;;12.60;99.90;;;14.51;59.87;102465.88;5227409;28;20044;-70
2022/04/16 05:55:50;;;;;;;10.95;5.78;;;13.10;99.90;;;14.84;57.85;102479.59;5226595;28;20051;-69
2022/04/16 05:58:22;;;;;;;;;;;13.60;99.00;;;15.26;56.58;102480.56;5227526;28;20053;-67
2022/04/16 06:00:56;;;;;;;10.23;5.40;;;14.00;98.10;;;15.84;54.85;102488.22;5228197;28;20350;-68
2022/04/16 06:03:29;;;;;;;12.50;6.25;;;14.50;96.90;;;16.31;52.85;102485.69;5226259;28;20409;-67
2022/04/16 06:06:01;;;;;;;11.20;6.32;;;15.00;94.90;;;16.74;50.85;102490.84;5226737;28;20426;-66
2022/04/16 06:08:33;;;;;;;10.75;5.55;;;15.50;92.50;;;17.10;49.18;102491.25;5226829;28;20049;-66
2022/04/16 06:11:06;;;;;;;10.18;5.55;;;15.90;90.20;;;17.35;48.15;102482.47;5226690;28;20523;-67
2022/04/16 06:13:38;;;;;;;12.02;5.82;;;16.30;86.50;;;17.55;47.66;102491.94;5226418;28;20059;-66
2022/04/16 06:16:11;;;;;;;11.43;6.28;;;16.60;84.00;;;17.76;46.80;102490.88;5226737;28;20496;-67
2022/04/16 06:18:43;;;;;;;10.02;5.63;;;16.80;81.50;;;17.92;46.41;102498.41;5226661;28;20485;-67
2022/04/16 06:21:15;;;;;;;10.45;5.88;;;17.10;79.90;;;18.03;46.00;102501.38;5227543;28;20055;-67
2022/04/16 06:23:47;;;;;;;9.80;5.53;;;17.30;78.10;;;18.07;45.65;102496.28;5226758;28;20048;-67
2022/04/16 06:26:19;;;;;;;11.82;6.20;;;17.40;76.90;;;18.13;45.48;102501.72;5226282;28;20049;-66
2022/04/16 06:28:51;;;;;;;11.35;5.43;;;17.40;76.00;;;18.27;45.54;102501.25;5226417;28;20044;-67
2022/04/16 06:31:25;;;;;;;10.85;5.90;;;17.50;76.00;;;18.42;45.31;102501.72;5226286;28;20497;-67
2022/04/16 06:33:57;;;;;;;10.93;5.28;;;17.60;75.20;;;18.59;45.34;102500.47;5226386;28;20377;-67
2022/04/16 06:36:29;;;;;;;11.25;6.40;;;17.80;75.60;;;18.72;45.45;102506.13;5226809;28;20055;-67
2022/04/16 06:39:01;;;;;;;10.93;6.05;;;17.90;75.20;;;18.81;45.08;102498.47;5228180;28;20078;-67
2022/04/16 06:41:33;;;;;;;10.25;5.97;;;18.00;74.40;;;18.96;44.64;102504.16;5225457;28;20532;-69
2022/04/16 06:44:06;;;;;;;10.55;5.60;;;18.10;73.90;;;19.04;44.38;102502.63;5224817;28;20045;-69
2022/04/16 06:46:40;;;;;;;9.45;5.57;;;18.10;73.20;;;18.82;45.43;102502.88;5210088;28;20048;-69
2022/04/16 06:49:12;;;;;;;8.60;5.18;;;18.10;74.30;;;18.79;45.43;102502.81;5225864;28;20057;-69
2022/04/16 06:51:44;;;;;;;10.73;5.97;;;18.00;74.20;;;18.76;45.61;102502.72;5225387;28;20411;-69
2022/04/16 06:54:16;;;;;;;9.98;5.88;;;18.00;74.60;;;18.78;46.22;102496.63;5225941;28;20041;-69
2022/04/16 06:56:48;;;;;;;9.90;6.55;;;18.00;75.40;;;19.02;45.43;102506.97;5225365;28;20485;-69
2022/04/16 06:59:19;;;;;;;9.95;6.00;;;18.10;74.70;;;19.20;45.61;102512.75;5226777;28;20051;-69
2022/04/16 07:01:53;;;;;;;10.88;6.28;;;18.30;75.10;;;19.40;44.85;102499.16;5217247;28;20080;-69
2022/04/16 07:04:25;;;;;;;9.95;5.28;;;18.40;74.00;;;19.33;44.32;102510.44;5225707;28;20045;-71
2022/04/16 07:06:57;;;;;;;10.57;6.18;;;18.50;72.60;;;19.47;45.03;102506.38;5225545;28;20059;-63
2022/04/16 07:09:29;;;;;;;10.13;4.85;;;18.70;73.30;;;19.75;43.98;102508.88;5225544;28;20099;-63
2022/04/16 07:12:01;;;;;;;7.85;4.55;;;19.00;72.20;;;20.03;42.71;102498.97;5225127;28;20049;-63
2022/04/16 07:14:33;;;;;;;10.57;4.85;;;19.30;69.30;;;20.18;42.23;102509.88;5225383;28;20044;-62
2022/04/16 07:17:07;;;;;;;9.07;4.70;;;19.50;68.40;;;20.20;41.59;102497.56;5225821;28;20049;-62
2022/04/16 07:19:39;;;;;;;8.68;4.68;;;19.70;66.60;;;20.22;41.70;102506.47;5225822;28;20505;-63
2022/04/16 07:22:11;;;;;;;8.57;4.35;;;19.80;66.30;;;20.17;41.57;102508.09;5224996;28;20502;-63
2022/04/16 07:24:44;;;;;;;11.68;5.32;;;19.90;65.90;;;20.00;41.72;102509.47;5225465;28;20132;-62
2022/04/16 07:27:16;;;;;;;10.35;5.35;;;19.80;65.20;;;19.78;42.36;102508.97;5225142;28;20448;-64
2022/04/16 07:29:49;;;;;;;11.57;5.30;;;19.70;65.40;;;19.92;41.85;102517.22;5224878;28;20045;-63
2022/04/16 07:32:23;;;;;;;10.10;4.93;;;19.70;65.30;;;19.69;41.93;102511.41;5224244;28;20144;-62
2022/04/16 07:34:55;;;;;;;10.80;5.53;;;19.60;64.90;;;19.63;42.50;102513.91;5209876;28;20048;-62
2022/04/16 07:37:27;;;;;;;11.18;5.07;;;19.50;65.60;;;19.97;42.52;102501.47;5225089;28;20053;-64
2022/04/16 07:39:59;;;;;;;9.35;4.18;;;19.60;66.30;;;20.26;41.93;102500.34;5218618;28;20504;-65
2022/04/16 07:42:32;;;;;;;14.07;5.97;;;19.70;65.90;;;20.59;41.17;102508.16;5220511;28;20358;-64
2022/04/16 07:45:05;;;;;;;10.40;5.72;;;20.00;65.40;;;20.64;40.68;102496.78;5224094;28;20099;-62
2022/04/16 07:47:38;;;;;;;10.77;5.63;;;20.10;64.20;;;20.74;40.16;102504.06;5222266;28;20053;-69
2022/04/16 07:50:12;;;;;;;12.05;6.03;;;20.20;63.40;;;20.73;40.09;102505.78;5224857;28;20531;-68
2022/04/16 07:52:44;;;;;;;10.48;5.85;;;20.20;63.30;;;20.56;40.82;102501.91;5224212;28;20071;-69
2022/04/16 07:55:16;;;;;;;12.65;5.97;;;20.00;64.00;;;20.71;40.64;102499.56;5223705;28;20522;-68
2022/04/16 07:57:49;;;;;;;10.85;5.60;;;20.10;64.20;;;20.78;40.03;102498.81;5225732;28;20052;-68
2022/04/16 08:00:21;;;;;;;14.43;5.55;;;20.10;63.40;;;20.82;39.69;102495.38;5225835;28;20045;-69
2022/04/16 08:02:54;;;;;;;11.38;6.18;;;20.00;63.00;;;20.63;39.94;102500.28;5225247;28;20047;-68
2022/04/16 08:05:27;;;;;;;10.65;5.45;;;19.90;63.10;;;21.02;40.03;102497.53;5225867;28;20501;-68
2022/04/16 08:07:59;;;;;;;11.15;5.75;;;20.00;64.00;;;21.42;38.49;102493.84;5226135;28;20456;-69
2022/04/16 08:10:31;;;;;;;11.07;5.60;;;20.20;62.40;;;21.51;38.12;102493.09;5225632;28;20594;-71
2022/04/16 08:13:03;;;;;;;11.93;5.60;;;20.30;62.40;;;21.58;37.51;102490.59;5225514;28;20144;-69
2022/04/16 08:15:35;;;;;;;10.18;5.38;;;20.30;61.40;;;21.32;37.86;102495.47;5226779;28;20055;-69
2022/04/16 08:18:08;;;;;;;11.40;5.28;;;20.20;61.10;;;21.06;38.27;102499.34;5222283;28;20051;-69
2022/04/16 08:20:40;;;;;;;10.93;5.45;;;20.00;61.40;;;20.23;39.18;102500.31;5211553;28;20051;-68
2022/04/16 08:23:13;;;;;;;11.05;5.63;;;19.50;61.30;;;19.61;40.59;102498.81;5223719;28;20516;-69
2022/04/16 08:25:45;;;;;;;8.93;4.53;;;19.00;63.40;;;20.04;39.27;102495.44;5221222;28;20123;-66
2022/04/16 08:28:17;;;;;;;9.20;4.60;;;19.00;62.40;;;20.63;37.83;102498.53;5229569;28;20049;-69
2022/04/16 08:30:50;;;;;;;9.10;3.63;;;19.10;61.30;;;21.71;36.04;102501.38;5229109;28;20045;-66
2022/04/16 08:33:23;;;;;;;6.72;3.70;;;19.40;60.90;;;22.42;34.95;102505.09;5230393;28;20401;-67
2022/04/16 08:35:55;;;;;;;8.45;3.90;;;19.80;60.10;;;23.82;33.22;102500.38;5228311;28;20095;-69
2022/04/16 08:38:27;;;;;;;8.10;3.78;;;20.40;59.50;;;;;;5228323;28;20063;-71
2022/04/16 08:41:04;;;;;;;7.93;4.20;;;21.30;58.50;;;26.00;29.82;102512.53;5224398;28;20106;-70
2022/04/16 08:43:37;;;;;;;7.00;3.40;;;22.00;56.60;;;26.21;28.62;102512.50;5228816;28;20049;-69
2022/04/16 08:46:09;;;;;;;5.28;3.08;;;22.50;54.60;;;26.78;27.67;102526.53;5228783;28;20041;-70
2022/04/16 08:48:42;;;;;;;5.25;2.70;;;23.10;53.30;;;26.98;26.28;102522.84;5228926;28;20049;-69
2022/04/16 08:51:15;;;;;;;3.25;2.17;;;23.50;50.50;;;27.15;25.53;102526.34;5228445;28;20049;-70
2022/04/16 08:53:47;;;;;;;4.05;1.95;;;23.80;49.20;;;26.45;25.33;102537.38;5229555;28;20056;-68
2022/04/16 08:56:20;;;;;;;4.80;2.58;;;23.60;47.90;;;24.10;27.71;102528.06;5228590;28;20397;-72
2022/04/16 08:58:53;;;;;;;4.32;2.70;;;22.60;48.40;;;22.95;29.65;102534.16;5228827;28;20049;-70
2022/04/16 09:01:25;;;;;;;4.78;2.33;;;21.80;50.00;;;22.87;30.60;102532.25;5228256;28;20049;-70
2022/04/16 09:03:59;;;;;;;4.88;2.83;;;21.40;51.80;;;22.67;31.06;102524.91;5228693;28;20478;-71
2022/04/16 09:06:31;;;;;;;4.18;2.50;;;21.20;52.40;;;22.32;31.90;102535.09;5228967;28;20045;-69
2022/04/16 09:09:11;;;;;;;5.45;2.60;;;21.00;53.20;;;22.72;32.21;102527.63;5228910;28;20508;-70
2022/04/16 09:11:48;;;;;;;4.57;2.42;;;21.10;54.30;;;23.01;31.15;102528.88;5230301;28;20548;-69
2022/04/16 09:14:21;;;;;;;4.30;2.30;;;21.30;53.00;;;23.61;30.47;102525.91;5228398;28;20053;-70
2022/04/16 09:16:53;;;;;;;4.85;2.58;;;21.80;52.70;;;23.51;30.17;102531.13;5227857;28;20059;-70
2022/04/16 09:19:30;;;;;;;4.65;2.42;;;21.90;51.70;;;23.42;30.53;102525.75;5228144;28;20049;-69
2022/04/16 09:22:02;;;;;;;4.15;2.30;;;22.10;51.60;;;23.06;30.93;102530.69;5227992;28;20417;-70
2022/04/16 09:24:47;;;;;;;4.00;2.30;;;22.10;51.40;;;22.60;31.96;102523.03;5228205;28;20067;-70
2022/04/16 09:27:19;;;;;;;3.47;1.85;;;22.00;52.10;;;22.21;31.91;102531.38;5228255;28;20057;-69
2022/04/16 09:29:51;;;;;;;3.35;2.00;;;21.80;51.40;;;21.46;32.32;102526.63;5228974;28;20052;-70
2022/04/16 09:32:25;;;;;;;3.47;2.00;;;21.30;51.30;;;20.79;33.66;102520.91;5227901;28;20055;-70
2022/04/16 09:34:58;;;;;;;2.78;1.85;;;20.70;52.60;;;20.73;33.60;102518.13;5227819;28;20136;-71
2022/04/16 09:37:34;;;;;;;3.33;1.67;;;20.50;52.60;;;20.78;33.77;102520.03;5227041;28;20056;-70
2022/04/16 09:40:13;;;;;;;2.83;1.83;;;20.40;53.00;;;20.63;33.15;102514.41;5227988;28;20408;-71
2022/04/16 09:42:53;;;;;;;3.08;1.90;;;20.30;52.20;;;20.70;33.14;102515.44;5227830;28;20049;-70
2022/04/16 09:45:25;;;;;;;3.00;1.80;;;20.20;52.50;;;20.83;33.53;102509.53;5228138;28;20041;-70
2022/04/16 09:47:59;;;;;;;5.07;2.05;;;20.30;53.00;;;21.04;33.26;102511.69;5227611;28;20047;-69
2022/04/16 09:50:33;;;;;;;2.72;1.50;;;20.40;53.00;;;21.12;32.89;102508.28;5228276;28;20048;-71
2022/04/16 09:53:07;;;;;;;3.05;1.60;;;20.50;52.60;;;20.89;32.93;102512.28;5227366;28;20073;-70
2022/04/16 09:55:41;;;;;;;3.97;1.60;;;20.40;52.30;;;21.20;33.41;102513.78;5227620;28;20048;-71
2022/04/16 09:58:14;;;;;;;2.85;1.40;;;20.50;53.10;;;21.10;33.36;102517.09;5227873;28;20452;-70
2022/04/16 10:00:48;;;;;;;2.53;1.52;;;20.50;52.80;;;21.14;33.01;102522.50;5227231;28;20049;-71
2022/04/16 10:03:20;;;;;;;2.13;1.35;;;20.50;52.60;;;21.36;33.41;102515.84;5227063;28;20045;-70
2022/04/16 10:05:55;;;;;;;1.95;1.17;;;20.70;53.20;;;21.55;32.66;102516.16;5227576;28;20591;-70
2022/04/16 10:08:28;;;;;;;2.05;1.48;;;20.70;52.40;;;21.56;31.98;102523.25;5228950;28;20049;-71
2022/04/16 10:11:03;;;;;;;2.67;1.55;;;20.80;51.70;;;21.38;31.88;102524.72;5226957;28;20049;-70
2022/04/16 10:13:44;;;;;;;2.90;1.60;;;20.80;51.40;;;20.93;32.06;102518.53;5226928;28;20106;-69
2022/04/16 10:16:20;;;;;;;2.60;1.50;;;20.60;50.40;;;20.86;32.56;102509.56;5227297;28;20045;-70
2022/04/16 10:18:52;;;;;;;2.83;1.42;;;20.40;51.60;;;20.21;31.07;102515.28;5243251;23;20037;-82
2022/04/16 10:24:04;;;;;;;3.65;1.90;;;19.70;50.20;;;18.94;31.66;102527.00;5204048;28;20524;-70
2022/04/16 10:26:43;;;;;;;2.08;1.55;;;19.20;48.90;;;18.89;32.93;102518.06;5206490;28;20046;-70
2022/04/16 10:29:20;;;;;;;3.78;1.70;;;18.90;50.80;;;18.95;33.18;102515.59;5205837;28;20136;-72
2022/04/16 10:31:52;;;;;;;2.50;1.60;;;18.80;51.30;;;19.25;32.61;102526.09;5205583;28;20069;-70
2022/04/16 10:34:30;;;;;;;2.95;1.60;;;18.90;51.40;;;19.59;32.97;102517.31;5205975;28;20075;-71
2022/04/16 10:37:02;;;;;;;4.50;2.00;;;19.00;51.80;;;19.85;31.53;102519.69;5205981;28;20464;-70
2022/04/16 10:39:38;;;;;;;2.40;1.50;;;19.20;50.60;;;19.97;32.50;102525.28;5205733;28;20050;-70
2022/04/16 10:42:10;;;;;;;4.63;1.75;;;19.30;51.50;;;20.08;31.42;102523.75;5205661;28;20053;-70
2022/04/16 10:44:47;;;;;;;3.38;2.10;;;19.50;50.40;;;19.79;31.38;102523.97;5205513;28;20144;-71
2022/04/16 10:47:19;;;;;;;2.38;1.50;;;19.40;50.00;;;19.67;32.93;102521.03;5205872;28;20049;-70
2022/04/16 10:49:58;;;;;;;4.03;1.88;;;19.30;51.60;;;20.00;33.81;102509.47;5205264;28;20379;-71
2022/04/16 10:52:30;;;;;;;2.72;1.77;;;19.40;53.00;;;20.20;33.62;102502.88;5205529;28;20493;-71
2022/04/16 10:55:06;;;;;;;2.85;1.80;;;19.50;53.00;;;20.35;32.78;102506.72;5205294;28;20081;-71
2022/04/16 10:57:38;;;;;;;3.15;2.00;;;19.70;52.10;;;20.36;33.06;102505.88;5205753;28;20509;-69